Ashland City, TN

1:02 AM CDT on May 25, 2015 (GMT -0500)
Camp Sycamore Hills | | Change Station
CLOSE
Current Station
Personal Weather Station
Location: Ashland City, TN
Elevation: 436 ft
Nearby Weather Stations

Elev 436 ft 36.32 °N, 87.06 °W | Updated 2 minutes ago

Partly Cloudy
Partly Cloudy
67.5 °F
Feels Like 67.5 °F
N
0.0
Wind Variable Wind from North

Today
High -- | Low -- °F
--% Chance of Precip.
Yesterday
High -- | Low -- °F
Precip. -- in
5:35 AM 7:55 PM
Waxing Crescent, 45% visible
Pressure 30.11 in
Visibility 10.0 miles
Clouds Mostly Cloudy 15000 ft
Dew Point 67 °F
Humidity 99%
Rainfall -999.00 in
Snow Depth Not available.
UV 0 out of 12
Pollen 7.30 out of 12
Air Quality Not available.
Flu Activity Sporadic
METAR KBNA 250453Z 17011KT 10SM BKN150 22/18 A3013 RMK AO2 SLP195 T02220183

More Conditions Fewer Conditions

Pressure 30.11 in
Visibility 10.0 miles
Clouds Mostly Cloudy 15000 ft
Dew Point 67 °F
Humidity 99%
Rainfall -999.00 in
Snow Depth Not available.
UV 0 out of 12
Pollen 7.30 out of 12
Air Quality Not available.
Flu Activity Sporadic
METAR KBNA 250453Z 17011KT 10SM BKN150 22/18 A3013 RMK AO2 SLP195 T02220183

More Conditions Fewer Conditions

10-Day Weather Forecast

Almanac

Astronomy

May. 25, 2015 Rise Set
Actual Time
Civil Twilight
Nautical Twilight
Astronomical Twilight
Moon
Length of Visible Light
Length of Day
Tomorrow will be .
, % of the Moon is Illuminated

Today's Extremes

State Highs State Lows

Community

WunderPhotos

Upload Photos

1,823,957 photos uploaded!

WunderBlogs® & News

Nearby

Air Quality

  Air Quality AQ Index Pollutant
Not available.

Snow Depth

Station Depth Elevation

Earthquake Activity

City Distance Mag. Time & Date
Minimum magnitude displayed is 2.5.

Coastal Water Temperatures

Place Temperature

Stations

Nearby Weather Stations

Station Location Temp. Windchill Dew Point Humidity Wind Precip. Elev Updated Type